createdAt,value
2017-05-18T15:36:09.690Z,535
2017-05-18T15:36:29.796Z,535
2017-05-18T15:36:49.849Z,535
2017-05-18T15:37:09.412Z,540
2017-05-18T15:37:30.580Z,545
2017-05-18T15:37:50.580Z,550
2017-05-18T15:38:10.620Z,555
2017-05-18T15:38:30.212Z,560
2017-05-18T15:38:50.228Z,565
2017-05-18T15:39:09.927Z,570
2017-05-18T15:39:29.884Z,580
2017-05-18T15:39:49.930Z,585
2017-05-18T15:40:09.368Z,585
2017-05-18T15:40:28.299Z,590
2017-05-18T15:40:48.205Z,595
2017-05-18T15:41:08.714Z,595
2017-05-18T15:41:28.741Z,600
2017-05-18T15:41:48.723Z,595
2017-05-18T15:42:08.207Z,600
2017-05-18T15:42:26.493Z,600
2017-05-18T15:42:46.463Z,595
2017-05-18T15:43:06.481Z,595
2017-05-18T15:43:26.497Z,600
2017-05-18T15:43:46.443Z,605
2017-05-18T15:44:07.600Z,620
2017-05-18T15:44:27.631Z,635
2017-05-18T15:44:47.175Z,650
2017-05-18T15:45:07.230Z,665
2017-05-18T15:45:27.381Z,675
2017-05-18T15:45:46.813Z,685
2017-05-18T15:46:06.280Z,700
2017-05-18T15:46:25.758Z,705
2017-05-18T15:47:18.996Z,725
2017-05-18T15:47:39.003Z,740
2017-05-18T15:47:58.924Z,750
2017-05-18T15:48:18.481Z,765
2017-05-18T15:48:37.910Z,775
2017-05-18T15:48:57.942Z,795
2017-05-18T15:49:17.945Z,800
2017-05-18T15:49:37.924Z,815
2017-05-18T15:49:57.978Z,820
2017-05-18T15:50:17.984Z,830
2017-05-18T15:50:37.976Z,840
2017-05-18T15:50:58.075Z,840
2017-05-18T15:51:18.137Z,840
2017-05-18T15:51:38.103Z,840
2017-05-18T15:51:58.116Z,835
2017-05-18T15:52:17.544Z,835
2017-05-18T15:52:37.052Z,835
2017-05-18T15:52:57.080Z,825
2017-05-18T15:53:16.548Z,815
2017-05-18T15:53:36.030Z,800
2017-05-18T15:53:56.002Z,785
2017-05-18T15:54:15.424Z,770
2017-05-18T15:54:34.367Z,755
2017-05-18T15:54:53.389Z,740
2017-05-18T15:55:13.389Z,725
2017-05-18T15:55:32.891Z,720
2017-05-18T15:55:52.985Z,715
2017-05-18T15:56:12.989Z,705
2017-05-18T15:56:32.961Z,700
2017-05-18T15:56:52.992Z,695
2017-05-18T15:57:12.384Z,695
2017-05-18T15:57:32.347Z,700
2017-05-18T15:57:52.459Z,710
2017-05-18T15:58:12.506Z,720
2017-05-18T15:58:32.497Z,720
2017-05-18T15:58:51.934Z,725
2017-05-18T15:59:11.916Z,725
2017-05-18T15:59:31.874Z,730
2017-05-18T15:59:51.312Z,725
2017-05-18T16:00:10.792Z,715
2017-05-18T16:00:30.257Z,700
2017-05-18T16:00:50.275Z,680
2017-05-18T16:01:10.307Z,660
2017-05-18T16:01:30.332Z,640
2017-05-18T16:01:50.323Z,610
2017-05-18T16:02:09.791Z,585
2017-05-18T16:02:29.829Z,560
2017-05-18T16:02:49.866Z,530
2017-05-18T16:03:09.286Z,500
2017-05-18T16:03:28.754Z,470
2017-05-18T16:03:48.775Z,440
2017-05-18T16:04:07.644Z,415
2017-05-18T16:04:26.538Z,390
2017-05-18T16:04:46.572Z,370
2017-05-18T16:05:06.038Z,360
2017-05-18T16:05:25.584Z,345
2017-05-18T16:05:45.604Z,335
2017-05-18T16:06:05.599Z,330
2017-05-18T16:06:26.145Z,325
2017-05-18T16:06:46.230Z,325
2017-05-18T16:07:06.199Z,325
2017-05-18T16:07:25.606Z,325
2017-05-18T16:07:45.663Z,330
2017-05-18T16:08:05.612Z,340
2017-05-18T16:08:25.094Z,350
2017-05-18T16:08:45.225Z,355
2017-05-18T16:09:04.670Z,360
2017-05-18T16:09:25.076Z,370
2017-05-18T16:09:45.675Z,385
2017-05-18T16:10:05.588Z,405
2017-05-18T16:10:25.677Z,425
2017-05-18T16:10:45.202Z,445
2017-05-18T16:11:06.982Z,470
2017-05-18T16:11:27.486Z,485
2017-05-18T16:11:48.304Z,500
2017-05-18T16:12:08.253Z,510
2017-05-18T16:12:28.242Z,520
2017-05-18T16:12:48.338Z,525
2017-05-18T16:13:07.925Z,525
2017-05-18T16:13:28.540Z,520
2017-05-18T16:13:47.955Z,510
2017-05-18T16:14:09.034Z,500
2017-05-18T16:14:29.061Z,490
2017-05-18T16:14:49.045Z,490
2017-05-18T16:15:08.721Z,490
2017-05-18T16:15:28.756Z,485
2017-05-18T16:15:48.824Z,475
2017-05-18T16:16:08.226Z,455
2017-05-18T16:16:26.604Z,440
2017-05-18T16:16:46.880Z,410
2017-05-18T16:17:06.306Z,385
2017-05-18T16:17:25.176Z,360
2017-05-18T16:17:45.210Z,330
2017-05-18T16:18:05.265Z,305
2017-05-18T16:18:25.305Z,280
2017-05-18T16:18:59.213Z,255
2017-05-18T16:19:19.198Z,240
2017-05-18T16:19:39.181Z,230
2017-05-18T16:19:58.640Z,220
2017-05-18T16:20:18.742Z,210
2017-05-18T16:20:38.812Z,205
2017-05-18T16:20:58.238Z,200
2017-05-18T16:21:18.655Z,195
2017-05-18T16:21:38.773Z,190
2017-05-18T16:21:58.906Z,190
2017-05-18T16:22:19.486Z,185
2017-05-18T16:22:39.185Z,185
2017-05-18T16:22:59.268Z,185
2017-05-18T16:23:32.814Z,185
2017-05-18T16:23:52.356Z,185
2017-05-18T16:24:12.459Z,185
2017-05-18T16:24:32.481Z,185
2017-05-18T16:24:52.459Z,185
2017-05-18T16:25:12.462Z,185
2017-05-18T16:25:32.473Z,190
2017-05-18T16:25:51.915Z,190
2017-05-18T16:26:12.551Z,190
2017-05-18T16:26:32.552Z,190
2017-05-18T16:26:51.967Z,190
2017-05-18T16:27:12.039Z,185
2017-05-18T16:27:32.031Z,185
2017-05-18T16:27:52.179Z,185
2017-05-18T16:28:12.692Z,180
2017-05-18T16:28:32.682Z,180
2017-05-18T16:28:51.594Z,180
2017-05-18T16:29:12.083Z,185
2017-05-18T16:29:32.036Z,190
2017-05-18T16:29:52.194Z,195
2017-05-18T16:30:11.772Z,200
2017-05-18T16:30:31.749Z,205
2017-05-18T16:30:51.297Z,215
2017-05-18T16:31:10.769Z,220
2017-05-18T16:31:30.757Z,225
2017-05-18T16:31:50.201Z,230
2017-05-18T16:32:09.688Z,230
2017-05-18T16:32:29.087Z,230
2017-05-18T16:32:49.207Z,230
2017-05-18T16:33:09.213Z,225
2017-05-18T16:33:28.695Z,225
2017-05-18T16:33:49.179Z,220
2017-05-18T16:34:08.656Z,225
2017-05-18T16:34:26.970Z,225
2017-05-18T16:34:46.404Z,230
2017-05-18T16:35:06.462Z,240
2017-05-18T16:35:26.680Z,250
2017-05-18T16:35:46.962Z,260
2017-05-18T16:36:07.633Z,270
2017-05-18T16:36:27.189Z,270
2017-05-18T16:36:47.212Z,275
2017-05-18T16:37:06.212Z,280
2017-05-18T16:37:27.095Z,290
2017-05-18T16:37:47.124Z,305
2017-05-18T16:38:07.184Z,310
2017-05-18T16:38:27.333Z,320
2017-05-18T16:38:47.653Z,325
2017-05-18T16:39:07.551Z,330
2017-05-18T16:39:27.007Z,330
2017-05-18T16:39:47.110Z,335
2017-05-18T16:40:05.952Z,330
2017-05-18T16:40:26.726Z,330
2017-05-18T16:40:46.789Z,325
2017-05-18T16:41:06.944Z,320
2017-05-18T16:41:26.984Z,310
2017-05-18T16:41:47.181Z,305
2017-05-18T16:42:07.497Z,295
2017-05-18T16:42:27.013Z,290
2017-05-18T16:42:47.123Z,285
2017-05-18T16:43:07.177Z,280
2017-05-18T16:43:27.418Z,280
2017-05-18T16:43:47.027Z,275
2017-05-18T16:44:07.240Z,270
2017-05-18T16:44:41.046Z,270
2017-05-18T16:45:01.236Z,270
2017-05-18T16:45:21.289Z,270
2017-05-18T16:45:40.751Z,270
2017-05-18T16:46:01.190Z,275
2017-05-18T16:46:21.374Z,280
2017-05-18T16:46:41.555Z,280
2017-05-18T16:47:01.847Z,285
2017-05-18T16:47:24.163Z,290
2017-05-18T16:47:44.165Z,300
2017-05-18T16:48:04.207Z,310
2017-05-18T16:48:24.227Z,315
2017-05-18T16:48:44.219Z,325
2017-05-18T16:49:04.175Z,335
2017-05-18T16:49:24.237Z,340
2017-05-18T16:49:45.197Z,345
2017-05-18T16:50:04.795Z,345
2017-05-18T16:50:24.299Z,345
2017-05-18T16:50:44.932Z,340
2017-05-18T16:51:05.526Z,340
2017-05-18T16:51:26.318Z,340
2017-05-18T16:51:46.649Z,335
2017-05-18T16:52:07.567Z,330
2017-05-18T16:52:27.244Z,330
2017-05-18T16:52:47.300Z,325
2017-05-18T16:53:06.700Z,310
2017-05-18T16:53:26.739Z,305
2017-05-18T16:53:46.838Z,295
2017-05-18T16:54:06.822Z,285
2017-05-18T16:54:26.827Z,280
2017-05-18T16:54:46.796Z,270
2017-05-18T16:55:06.289Z,265
2017-05-18T16:55:25.770Z,255
2017-05-18T16:55:45.911Z,250
2017-05-18T16:56:06.422Z,245
2017-05-18T16:56:26.420Z,240
2017-05-18T16:56:46.438Z,235
2017-05-18T16:57:06.043Z,235
2017-05-18T16:57:26.584Z,230
2017-05-18T16:57:47.081Z,235
2017-05-18T16:58:07.301Z,235
2017-05-18T16:58:26.827Z,240
2017-05-18T16:58:46.286Z,245
2017-05-18T16:59:06.348Z,250
2017-05-18T16:59:26.378Z,255
2017-05-18T16:59:46.430Z,260
2017-05-18T17:00:05.883Z,270
2017-05-18T17:00:25.858Z,270
2017-05-18T17:00:45.854Z,270
2017-05-18T17:01:05.902Z,275
2017-05-18T17:01:25.885Z,275
2017-05-18T17:01:45.344Z,275
2017-05-18T17:02:05.476Z,275
2017-05-18T17:02:25.526Z,270
2017-05-18T17:02:45.491Z,270
2017-05-18T17:03:05.501Z,270
2017-05-18T17:03:25.495Z,270
2017-05-18T17:03:59.376Z,265
2017-05-18T17:04:19.347Z,270
2017-05-18T17:04:38.803Z,270
2017-05-18T17:04:58.254Z,270
2017-05-18T17:05:18.247Z,270
2017-05-18T17:05:37.667Z,275
2017-05-18T17:05:57.684Z,275
2017-05-18T17:06:17.698Z,275
2017-05-18T17:06:37.679Z,280
2017-05-18T17:06:57.693Z,285
2017-05-18T17:07:17.650Z,290
2017-05-18T17:07:37.590Z,295
2017-05-18T17:07:57.017Z,300
2017-05-18T17:08:16.472Z,300
2017-05-18T17:08:36.503Z,305
2017-05-18T17:08:56.492Z,310
2017-05-18T17:09:16.488Z,305
2017-05-18T17:09:36.465Z,305
2017-05-18T17:09:56.466Z,305
2017-05-18T17:10:15.345Z,305
2017-05-18T17:10:35.449Z,305
2017-05-18T17:10:55.506Z,305
2017-05-18T17:11:14.928Z,305
2017-05-18T17:11:34.321Z,305
2017-05-18T17:11:54.279Z,305
2017-05-18T17:12:14.304Z,305
2017-05-18T17:12:33.653Z,305
2017-05-18T17:12:53.650Z,305
2017-05-18T17:13:13.665Z,305
2017-05-18T17:13:33.695Z,305
2017-05-18T17:13:53.677Z,305
2017-05-18T17:14:13.662Z,300
2017-05-18T17:14:32.569Z,300
2017-05-18T17:14:52.530Z,300
2017-05-18T17:15:13.079Z,300
2017-05-18T17:15:33.186Z,305
2017-05-18T17:15:52.570Z,300
2017-05-18T17:16:12.558Z,300
2017-05-18T17:16:31.964Z,300
2017-05-18T17:16:51.996Z,300
2017-05-18T17:17:11.419Z,300
2017-05-18T17:17:31.395Z,300
2017-05-18T17:17:50.224Z,305
2017-05-18T17:18:09.698Z,305
2017-05-18T17:18:29.703Z,305
2017-05-18T17:18:49.704Z,305
2017-05-18T17:19:09.170Z,305
2017-05-18T17:19:29.171Z,305
2017-05-18T17:19:49.158Z,305
2017-05-18T17:20:09.175Z,305
2017-05-18T17:20:29.237Z,300
2017-05-18T17:20:49.309Z,300
2017-05-18T17:21:09.305Z,300
2017-05-18T17:21:28.744Z,300
2017-05-18T17:21:48.825Z,300
2017-05-18T17:22:08.805Z,300
2017-05-18T17:22:28.836Z,300
2017-05-18T17:22:49.596Z,300
2017-05-18T17:23:10.385Z,300
2017-05-18T17:23:30.769Z,300
2017-05-18T17:23:51.109Z,300
2017-05-18T17:24:11.121Z,300
2017-05-18T17:24:31.167Z,300
2017-05-18T17:24:50.605Z,300
2017-05-18T17:25:10.556Z,300
2017-05-18T17:25:30.555Z,300
2017-05-18T17:25:50.530Z,300
2017-05-18T17:26:10.446Z,300
2017-05-18T17:26:30.557Z,300
2017-05-18T17:26:50.629Z,295
2017-05-18T17:27:10.610Z,295
2017-05-18T17:27:30.628Z,295
2017-05-18T17:27:50.136Z,295
2017-05-18T17:28:10.230Z,295
2017-05-18T17:28:29.701Z,295
2017-05-18T17:28:49.708Z,290
2017-05-18T17:29:09.181Z,290
2017-05-18T17:29:29.125Z,285
2017-05-18T17:29:48.519Z,285
2017-05-18T17:30:08.506Z,280
2017-05-18T17:30:28.463Z,280
2017-05-18T17:30:48.528Z,275
2017-05-18T17:31:08.503Z,275
2017-05-18T17:31:28.505Z,270
2017-05-18T17:31:47.928Z,265
2017-05-18T17:32:07.913Z,265
2017-05-18T17:32:27.344Z,260
2017-05-18T17:32:47.349Z,260
2017-05-18T17:33:06.210Z,260
2017-05-18T17:33:25.607Z,255
2017-05-18T17:33:45.581Z,260
2017-05-18T17:34:05.592Z,255
2017-05-18T17:34:24.668Z,255
2017-05-18T17:34:45.324Z,250
2017-05-18T17:35:04.735Z,250
2017-05-18T17:35:25.258Z,250
2017-05-18T17:35:45.425Z,250
2017-05-18T17:36:04.846Z,250
2017-05-18T17:36:25.474Z,250
2017-05-18T17:36:47.545Z,250
2017-05-18T17:37:07.672Z,250
2017-05-18T17:37:27.711Z,245
2017-05-18T17:37:47.700Z,245
2017-05-18T17:38:08.015Z,245
2017-05-18T17:38:28.641Z,250
2017-05-18T17:38:48.779Z,250
2017-05-18T17:39:08.457Z,250
2017-05-18T17:39:28.760Z,250
2017-05-18T17:39:48.992Z,250
2017-05-18T17:40:08.986Z,255
2017-05-18T17:40:28.976Z,255
2017-05-18T17:40:49.021Z,255
2017-05-18T17:41:09.088Z,255
2017-05-18T17:41:29.046Z,260
2017-05-18T17:41:49.099Z,265
2017-05-18T17:42:09.035Z,265
2017-05-18T17:42:29.028Z,265
2017-05-18T17:42:49.424Z,265
2017-05-18T17:43:10.343Z,265
2017-05-18T17:43:31.279Z,270
2017-05-18T17:43:51.899Z,265
2017-05-18T17:44:12.092Z,270
2017-05-18T17:44:32.254Z,270
2017-05-18T17:44:52.447Z,265
2017-05-18T17:45:13.918Z,270
2017-05-18T17:45:34.635Z,260
2017-05-18T17:45:55.303Z,260
2017-05-18T17:46:15.405Z,255
2017-05-18T17:46:35.729Z,255
2017-05-18T17:46:57.017Z,250
2017-05-18T17:47:17.361Z,250
2017-05-18T17:47:37.052Z,245
2017-05-18T17:47:56.507Z,245
2017-05-18T17:48:16.470Z,240
2017-05-18T17:48:36.489Z,240
2017-05-18T17:48:56.540Z,235
2017-05-18T17:49:15.962Z,235
2017-05-18T17:49:35.920Z,235
2017-05-18T17:49:56.134Z,235
2017-05-18T17:50:15.499Z,235
2017-05-18T17:50:35.568Z,235
2017-05-18T17:50:55.662Z,240
2017-05-18T17:51:15.638Z,240
2017-05-18T17:51:35.602Z,245
2017-05-18T17:51:55.020Z,245
2017-05-18T17:52:15.017Z,250
2017-05-18T17:52:33.845Z,255
2017-05-18T17:52:53.848Z,260
2017-05-18T17:53:13.789Z,265
2017-05-18T17:53:33.789Z,270
2017-05-18T17:53:53.214Z,275
2017-05-18T17:54:12.181Z,280
2017-05-18T17:54:32.181Z,280
2017-05-18T17:54:51.884Z,285
2017-05-18T17:55:11.940Z,290
2017-05-18T17:55:31.862Z,290
2017-05-18T17:55:51.296Z,295
2017-05-18T17:56:10.783Z,295
2017-05-18T17:56:30.840Z,295
2017-05-18T17:56:50.282Z,295
2017-05-18T17:57:10.290Z,295
2017-05-18T17:57:30.264Z,295
2017-05-18T17:57:49.730Z,295
2017-05-18T17:58:08.511Z,295
2017-05-18T17:58:27.270Z,300
2017-05-18T17:58:46.556Z,290
2017-05-18T17:59:05.887Z,290
2017-05-18T17:59:24.695Z,290
2017-05-18T18:00:17.631Z,290
2017-05-18T18:00:36.647Z,285
2017-05-18T18:00:55.948Z,285
2017-05-18T18:01:14.796Z,280
2017-05-18T18:01:33.599Z,275
2017-05-18T18:01:52.974Z,275
2017-05-18T18:02:12.761Z,270
2017-05-18T18:02:32.033Z,270
2017-05-18T18:02:51.618Z,265
2017-05-18T18:03:10.691Z,265
2017-05-18T18:03:30.013Z,260
2017-05-18T18:03:49.588Z,260
2017-05-18T18:04:08.626Z,255
2017-05-18T18:04:27.983Z,255
2017-05-18T18:04:47.417Z,250
2017-05-18T18:05:06.802Z,250
2017-05-18T18:05:25.776Z,245
2017-05-18T18:05:46.706Z,240
2017-05-18T18:06:05.995Z,240
2017-05-18T18:06:25.714Z,235
2017-05-18T18:06:45.401Z,235
2017-05-18T18:07:04.814Z,230
2017-05-18T18:07:24.560Z,230
2017-05-18T18:07:43.991Z,230
2017-05-18T18:08:03.398Z,230
2017-05-18T18:08:22.242Z,230
2017-05-18T18:08:41.002Z,230
2017-05-18T18:09:00.291Z,230
2017-05-18T18:09:19.110Z,230
2017-05-18T18:09:37.986Z,225
2017-05-18T18:09:57.606Z,225
2017-05-18T18:10:16.429Z,225
2017-05-18T18:10:35.769Z,215
2017-05-18T18:10:55.051Z,210
2017-05-18T18:11:14.304Z,210
2017-05-18T18:11:33.586Z,210
2017-05-18T18:11:52.860Z,215
2017-05-18T18:12:12.167Z,225
2017-05-18T18:12:31.449Z,230
2017-05-18T18:12:50.774Z,235
2017-05-18T18:13:10.139Z,235
2017-05-18T18:13:29.407Z,235
2017-05-18T18:13:48.698Z,230
2017-05-18T18:14:07.423Z,235
2017-05-18T18:14:26.240Z,235
2017-05-18T18:14:45.540Z,240
2017-05-18T18:15:04.310Z,240
2017-05-18T18:15:23.703Z,240
2017-05-18T18:15:43.156Z,240
2017-05-18T18:16:01.979Z,240
2017-05-18T18:16:21.306Z,240
2017-05-18T18:16:40.670Z,240
2017-05-18T18:17:00.140Z,240
2017-05-18T18:17:18.503Z,235
2017-05-18T18:17:37.814Z,235
2017-05-18T18:17:57.210Z,235
2017-05-18T18:18:16.049Z,235
2017-05-18T18:18:35.389Z,240
2017-05-18T18:18:54.763Z,240
2017-05-18T18:19:13.612Z,240
2017-05-18T18:19:32.970Z,240
2017-05-18T18:19:52.351Z,240
2017-05-18T18:20:11.737Z,240
2017-05-18T18:20:30.810Z,240
2017-05-18T18:20:50.365Z,240
2017-05-18T18:21:09.791Z,240
2017-05-18T18:21:29.254Z,240
2017-05-18T18:21:49.173Z,240
2017-05-18T18:22:08.014Z,240
2017-05-18T18:22:26.844Z,240
2017-05-18T18:22:46.140Z,240
2017-05-18T18:23:05.053Z,240
2017-05-18T18:23:24.579Z,240
2017-05-18T18:23:43.385Z,240
2017-05-18T18:24:02.685Z,245
2017-05-18T18:24:22.015Z,245
2017-05-18T18:24:41.539Z,245
2017-05-18T18:25:00.474Z,245
2017-05-18T18:25:18.798Z,245
2017-05-18T18:25:38.259Z,245
2017-05-18T18:25:57.310Z,240
2017-05-18T18:26:18.120Z,240
2017-05-18T18:26:37.474Z,240
2017-05-18T18:26:56.369Z,235
2017-05-18T18:27:15.763Z,235
2017-05-18T18:27:35.132Z,235
2017-05-18T18:27:55.966Z,245
2017-05-18T18:28:15.212Z,240
2017-05-18T18:28:48.001Z,240
2017-05-18T18:29:07.425Z,245
2017-05-18T18:29:27.765Z,245
2017-05-18T18:29:47.162Z,250
2017-05-18T18:30:06.583Z,250
2017-05-18T18:30:25.586Z,250
2017-05-18T18:30:45.027Z,250
2017-05-18T18:31:04.440Z,255
2017-05-18T18:31:23.559Z,255
2017-05-18T18:31:57.285Z,255
2017-05-18T18:32:16.454Z,260
2017-05-18T18:32:36.151Z,265
2017-05-18T18:32:55.146Z,265
2017-05-18T18:33:14.845Z,265
2017-05-18T18:33:34.294Z,265
2017-05-18T18:33:53.107Z,265
2017-05-18T18:34:12.427Z,265
2017-05-18T18:34:31.826Z,270
2017-05-18T18:34:51.655Z,270
2017-05-18T18:35:11.678Z,270
2017-05-18T18:35:31.604Z,275
2017-05-18T18:35:51.263Z,275
2017-05-18T18:36:10.675Z,280
2017-05-18T18:36:29.503Z,280
2017-05-18T18:36:48.457Z,280
2017-05-18T18:37:08.203Z,280
2017-05-18T18:37:27.763Z,280
2017-05-18T18:37:47.038Z,285
2017-05-18T18:38:07.226Z,285
2017-05-18T18:38:26.618Z,290
2017-05-18T18:38:44.949Z,295
2017-05-18T18:39:04.307Z,295
2017-05-18T18:39:23.183Z,300
2017-05-18T18:39:42.126Z,300
2017-05-18T18:40:01.384Z,305
2017-05-18T18:40:20.844Z,310
2017-05-18T18:40:40.233Z,315
2017-05-18T18:40:59.577Z,320
2017-05-18T18:41:19.047Z,320
2017-05-18T18:41:38.462Z,325
2017-05-18T18:41:57.294Z,325
2017-05-18T18:42:15.539Z,325
2017-05-18T18:42:34.427Z,325
2017-05-18T18:42:53.864Z,325
2017-05-18T18:43:13.229Z,325
2017-05-18T18:43:32.160Z,320
2017-05-18T18:43:50.971Z,320
2017-05-18T18:44:09.806Z,315
2017-05-18T18:44:29.173Z,320
2017-05-18T18:44:48.021Z,310
2017-05-18T18:45:07.364Z,310
2017-05-18T18:45:26.744Z,310
2017-05-18T18:45:46.199Z,310
2017-05-18T18:46:05.619Z,310
2017-05-18T18:46:24.987Z,305
2017-05-18T18:46:58.280Z,305
2017-05-18T18:47:17.258Z,310
2017-05-18T18:47:35.695Z,310
2017-05-18T18:47:55.048Z,315
2017-05-18T18:48:13.818Z,315
2017-05-18T18:48:31.551Z,315
2017-05-18T18:48:50.304Z,310
2017-05-18T18:49:09.599Z,310
2017-05-18T18:49:28.385Z,310
2017-05-18T18:49:47.907Z,310
2017-05-18T18:50:07.337Z,310
2017-05-18T18:50:26.643Z,305
2017-05-18T18:50:45.907Z,305
2017-05-18T18:51:05.219Z,305
2017-05-18T18:51:23.993Z,305
2017-05-18T18:51:43.213Z,305
2017-05-18T18:52:02.485Z,300
2017-05-18T18:52:21.743Z,300
2017-05-18T18:52:41.039Z,300
2017-05-18T18:53:00.376Z,305
2017-05-18T18:53:19.737Z,305
2017-05-18T18:53:39.027Z,310
2017-05-18T18:53:58.374Z,305
2017-05-18T18:54:16.647Z,300
2017-05-18T18:54:35.979Z,300
2017-05-18T18:54:55.256Z,295
2017-05-18T18:55:14.007Z,290
2017-05-18T18:55:32.780Z,285
2017-05-18T18:55:52.099Z,280
2017-05-18T18:56:10.378Z,275
2017-05-18T18:56:29.680Z,270
2017-05-18T18:56:48.964Z,260
2017-05-18T18:57:08.243Z,250
2017-05-18T18:57:27.061Z,235
2017-05-18T18:57:46.344Z,225
2017-05-18T18:58:05.096Z,220
2017-05-18T18:58:24.426Z,220
2017-05-18T18:58:43.710Z,220
2017-05-18T18:59:03.012Z,220
2017-05-18T18:59:22.264Z,220
2017-05-18T18:59:41.566Z,220
2017-05-18T19:00:00.413Z,220
2017-05-18T19:00:19.228Z,215
2017-05-18T19:00:38.475Z,205
2017-05-18T19:00:57.809Z,190
2017-05-18T19:01:16.630Z,180
2017-05-18T19:01:35.423Z,175
2017-05-18T19:01:54.206Z,175
2017-05-18T19:02:12.978Z,170
2017-05-18T19:02:32.240Z,170
2017-05-18T19:02:51.030Z,165
2017-05-18T19:03:10.334Z,160
2017-05-18T19:03:29.708Z,160
2017-05-18T19:03:49.024Z,155
2017-05-18T19:04:08.280Z,160
2017-05-18T19:04:27.040Z,165
2017-05-18T19:04:45.831Z,170
2017-05-18T19:05:05.149Z,175
2017-05-18T19:05:24.426Z,175
2017-05-18T19:05:43.746Z,175
2017-05-18T19:06:03.092Z,175
2017-05-18T19:06:22.417Z,175
2017-05-18T19:06:41.718Z,175
2017-05-18T19:07:01.059Z,180
2017-05-18T19:07:19.861Z,180
2017-05-18T19:07:38.431Z,175
2017-05-18T19:07:57.857Z,170
2017-05-18T19:08:16.467Z,170
2017-05-18T19:08:35.228Z,175
2017-05-18T19:08:54.486Z,175
2017-05-18T19:09:13.857Z,165
2017-05-18T19:09:33.209Z,155
2017-05-18T19:09:52.720Z,150
2017-05-18T19:10:12.009Z,145
2017-05-18T19:10:31.291Z,140
2017-05-18T19:10:50.596Z,140
2017-05-18T19:11:09.888Z,140
2017-05-18T19:11:28.745Z,135
2017-05-18T19:11:49.135Z,135
2017-05-18T19:12:07.957Z,130
2017-05-18T19:12:27.227Z,130
2017-05-18T19:12:46.601Z,130
2017-05-18T19:13:05.850Z,125
2017-05-18T19:13:24.636Z,125
2017-05-18T19:13:43.514Z,120
2017-05-18T19:14:02.404Z,120
2017-05-18T19:14:21.327Z,120
2017-05-18T19:14:40.690Z,120
2017-05-18T19:15:00.090Z,120
2017-05-18T19:15:18.930Z,120
2017-05-18T19:15:37.768Z,115
2017-05-18T19:15:57.349Z,110
2017-05-18T19:16:16.212Z,110
2017-05-18T19:16:35.069Z,105
2017-05-18T19:16:54.399Z,105
2017-05-18T19:17:13.371Z,105
2017-05-18T19:17:31.664Z,105
2017-05-18T19:17:50.913Z,105
2017-05-18T19:18:10.230Z,110
2017-05-18T19:18:29.483Z,110
2017-05-18T19:18:48.280Z,110
2017-05-18T19:19:07.042Z,110
2017-05-18T19:19:26.304Z,110
2017-05-18T19:19:45.635Z,110
2017-05-18T19:20:05.013Z,110
2017-05-18T19:20:24.382Z,105
2017-05-18T19:20:43.156Z,105
2017-05-18T19:21:02.478Z,105
2017-05-18T19:21:21.758Z,105
2017-05-18T19:21:40.993Z,110
2017-05-18T19:22:00.286Z,115
2017-05-18T19:22:18.550Z,115
2017-05-18T19:22:37.810Z,120
2017-05-18T19:22:57.066Z,120
2017-05-18T19:23:15.840Z,125
2017-05-18T19:23:35.118Z,125
2017-05-18T19:23:54.423Z,125
2017-05-18T19:24:13.196Z,125
2017-05-18T19:24:31.479Z,125
2017-05-18T19:24:50.772Z,125
2017-05-18T19:25:10.452Z,130
2017-05-18T19:25:30.027Z,135
2017-05-18T19:25:49.322Z,135
2017-05-18T19:26:08.645Z,135
2017-05-18T19:26:27.959Z,135
2017-05-18T19:26:47.317Z,135
2017-05-18T19:27:06.565Z,135
2017-05-18T19:27:25.879Z,140
2017-05-18T19:27:45.257Z,135
2017-05-18T19:28:04.611Z,135
2017-05-18T19:28:24.139Z,130
2017-05-18T19:28:43.509Z,130
2017-05-18T19:29:01.936Z,125
2017-05-18T19:29:21.339Z,120
2017-05-18T19:29:40.729Z,120
2017-05-18T19:30:00.364Z,115
2017-05-18T19:30:19.742Z,110
2017-05-18T19:30:38.547Z,105
2017-05-18T19:30:57.807Z,100
2017-05-18T19:31:17.130Z,100
2017-05-18T19:31:36.554Z,100
2017-05-18T19:31:55.849Z,95
2017-05-18T19:32:15.152Z,95
2017-05-18T19:32:34.581Z,90
2017-05-18T19:32:53.366Z,90
2017-05-18T19:33:12.649Z,85
2017-05-18T19:33:31.545Z,80
2017-05-18T19:33:50.440Z,80
2017-05-18T19:34:09.798Z,80
2017-05-18T19:34:29.114Z,75
2017-05-18T19:34:48.603Z,75
2017-05-18T19:35:07.941Z,75
2017-05-18T19:35:27.266Z,75
2017-05-18T19:35:46.652Z,70
2017-05-18T19:36:05.951Z,70
2017-05-18T19:36:25.290Z,70
2017-05-18T19:36:44.655Z,70
2017-05-18T19:37:03.930Z,65
2017-05-18T19:37:23.251Z,60
2017-05-18T19:37:41.563Z,60
2017-05-18T19:38:00.881Z,55
2017-05-18T19:38:19.149Z,55
2017-05-18T19:38:38.512Z,50
2017-05-18T19:38:57.755Z,50
2017-05-18T19:39:16.032Z,50
2017-05-18T19:39:35.327Z,50
2017-05-18T19:39:54.115Z,50
2017-05-18T19:40:12.865Z,50
2017-05-18T19:40:32.122Z,50
2017-05-18T19:40:51.373Z,45
2017-05-18T19:41:10.147Z,45
2017-05-18T19:41:29.481Z,45
2017-05-18T19:41:48.860Z,45
2017-05-18T19:42:07.647Z,40
2017-05-18T19:42:26.446Z,40
2017-05-18T19:42:45.709Z,40
2017-05-18T19:43:05.025Z,40
2017-05-18T19:43:24.319Z,40
2017-05-18T19:43:43.104Z,40
2017-05-18T19:44:02.389Z,40
2017-05-18T19:44:21.671Z,35
2017-05-18T19:44:40.977Z,35
2017-05-18T19:45:00.365Z,35
2017-05-18T19:45:19.650Z,35
2017-05-18T19:45:38.446Z,35
2017-05-18T19:45:56.689Z,35
2017-05-18T19:46:14.968Z,35
2017-05-18T19:46:34.238Z,30
2017-05-18T19:46:53.579Z,30
2017-05-18T19:47:12.384Z,30
2017-05-18T19:47:31.663Z,30
2017-05-18T19:47:50.975Z,25
2017-05-18T19:48:09.711Z,25
2017-05-18T19:48:29.016Z,25
2017-05-18T19:48:48.291Z,25
2017-05-18T19:49:07.045Z,30
2017-05-18T19:49:25.798Z,30
2017-05-18T19:49:44.570Z,30
2017-05-18T19:50:03.944Z,25
2017-05-18T19:50:23.290Z,25
2017-05-18T19:50:42.990Z,25
2017-05-18T19:51:02.244Z,25
2017-05-18T19:51:21.510Z,30
2017-05-18T19:51:40.795Z,30
2017-05-18T19:52:00.097Z,25
2017-05-18T19:52:19.366Z,25
2017-05-18T19:52:38.664Z,25
2017-05-18T19:52:57.419Z,25
2017-05-18T19:53:16.676Z,25
2017-05-18T19:53:35.967Z,25
2017-05-18T19:53:55.284Z,25
2017-05-18T19:54:14.599Z,25
2017-05-18T19:54:33.505Z,25
2017-05-18T19:54:52.912Z,25
2017-05-18T19:55:12.221Z,25
2017-05-18T19:55:31.457Z,25
2017-05-18T19:55:50.903Z,25
2017-05-18T19:56:10.223Z,25
2017-05-18T19:56:29.503Z,20
2017-05-18T19:56:48.833Z,20
2017-05-18T19:57:08.131Z,20
2017-05-18T19:57:26.942Z,20
2017-05-18T19:57:46.964Z,15
2017-05-18T19:58:06.030Z,15
2017-05-18T19:58:25.037Z,15
2017-05-18T19:58:44.345Z,15
2017-05-18T19:59:03.770Z,15
2017-05-18T19:59:23.093Z,15
2017-05-18T19:59:42.382Z,15
2017-05-18T20:00:01.184Z,15
2017-05-18T20:00:20.447Z,15
2017-05-18T20:00:39.754Z,15
2017-05-18T20:00:58.993Z,15
2017-05-18T20:01:17.760Z,15
2017-05-18T20:01:37.066Z,15
2017-05-18T20:01:56.341Z,15
2017-05-18T20:02:15.636Z,15
2017-05-18T20:02:34.941Z,15
2017-05-18T20:02:54.238Z,10
2017-05-18T20:03:13.501Z,10
2017-05-18T20:03:32.258Z,10
2017-05-18T20:03:51.080Z,10
2017-05-18T20:04:10.373Z,10
2017-05-18T20:04:29.696Z,10
2017-05-18T20:04:48.480Z,10
2017-05-18T20:05:07.742Z,10
2017-05-18T20:05:26.498Z,10
2017-05-18T20:05:45.813Z,10
2017-05-18T20:06:05.126Z,10
2017-05-18T20:06:24.403Z,10
2017-05-18T20:06:43.697Z,10
2017-05-18T20:07:02.957Z,10
2017-05-18T20:07:21.726Z,10
2017-05-18T20:07:41.046Z,10
2017-05-18T20:08:00.316Z,10
2017-05-18T20:08:18.628Z,10
2017-05-18T20:08:37.935Z,10
2017-05-18T20:08:56.711Z,10
2017-05-18T20:09:15.454Z,10
2017-05-18T20:09:34.799Z,5